sensor_id;sensor_type;location;lat;lon;timestamp;pressure;altitude;pressure_sealevel;temperature;humidity
7754;BME280;3921;42.266;23.122;2023-02-21T00:00:56;96134.44;;;4.82;60.61
7754;BME280;3921;42.266;23.122;2023-02-21T00:03:42;96146.22;;;5.19;60.13
7754;BME280;3921;42.266;23.122;2023-02-21T00:06:26;96133.88;;;4.92;60.35
7754;BME280;3921;42.266;23.122;2023-02-21T00:09:17;96229.34;;;5.54;60.30
7754;BME280;3921;42.266;23.122;2023-02-21T00:12:01;96113.38;;;5.00;60.07
7754;BME280;3921;42.266;23.122;2023-02-21T00:14:46;96119.22;;;5.02;59.70
7754;BME280;3921;42.266;23.122;2023-02-21T00:17:32;96070.69;;;4.55;60.70
7754;BME280;3921;42.266;23.122;2023-02-21T00:20:18;96223.63;;;5.56;60.67
7754;BME280;3921;42.266;23.122;2023-02-21T00:23:05;96083.22;;;4.58;60.26
7754;BME280;3921;42.266;23.122;2023-02-21T00:25:58;96089.31;;;4.38;61.19
7754;BME280;3921;42.266;23.122;2023-02-21T00:28:48;96203.09;;;5.03;60.84
7754;BME280;3921;42.266;23.122;2023-02-21T00:31:35;96107.91;;;4.50;61.00
7754;BME280;3921;42.266;23.122;2023-02-21T00:34:21;96119.63;;;4.55;60.47
7754;BME280;3921;42.266;23.122;2023-02-21T00:37:10;96160.72;;;5.02;60.60
7754;BME280;3921;42.266;23.122;2023-02-21T00:39:55;96083.22;;;4.58;60.49
7754;BME280;3921;42.266;23.122;2023-02-21T00:42:45;96033.94;;;4.15;60.89
7754;BME280;3921;42.266;23.122;2023-02-21T00:45:35;96075.47;;;4.47;60.46
7754;BME280;3921;42.266;23.122;2023-02-21T00:48:22;95774.19;;;2.47;60.53
7754;BME280;3921;42.266;23.122;2023-02-21T00:51:26;96058.47;;;4.03;61.95
7754;BME280;3921;42.266;23.122;2023-02-21T00:54:14;96079.41;;;4.11;62.39
7754;BME280;3921;42.266;23.122;2023-02-21T00:56:58;96132.25;;;4.61;62.13
7754;BME280;3921;42.266;23.122;2023-02-21T00:59:43;96055.00;;;4.26;61.49
7754;BME280;3921;42.266;23.122;2023-02-21T01:02:27;96119.53;;;4.51;61.79
7754;BME280;3921;42.266;23.122;2023-02-21T01:05:12;96177.88;;;4.91;62.07
7754;BME280;3921;42.266;23.122;2023-02-21T01:07:59;96077.88;;;4.44;61.36
7754;BME280;3921;42.266;23.122;2023-02-21T01:10:45;96086.31;;;4.49;60.64
7754;BME280;3921;42.266;23.122;2023-02-21T01:13:32;96051.72;;;4.29;60.69
7754;BME280;3921;42.266;23.122;2023-02-21T01:16:18;96132.41;;;4.98;60.32
7754;BME280;3921;42.266;23.122;2023-02-21T01:19:03;95983.06;;;4.04;60.33
7754;BME280;3921;42.266;23.122;2023-02-21T01:21:47;96158.56;;;5.14;59.96
7754;BME280;3921;42.266;23.122;2023-02-21T01:24:32;96059.09;;;4.56;59.69
7754;BME280;3921;42.266;23.122;2023-02-21T01:27:26;96044.56;;;4.39;60.48
7754;BME280;3921;42.266;23.122;2023-02-21T01:30:12;96164.22;;;5.09;60.66
7754;BME280;3921;42.266;23.122;2023-02-21T01:32:59;96001.91;;;4.25;60.18
7754;BME280;3921;42.266;23.122;2023-02-21T01:35:43;96050.47;;;4.43;60.74
7754;BME280;3921;42.266;23.122;2023-02-21T01:38:35;95972.63;;;3.85;60.89
7754;BME280;3921;42.266;23.122;2023-02-21T01:41:22;96006.25;;;4.03;61.92
7754;BME280;3921;42.266;23.122;2023-02-21T01:44:33;96147.41;;;5.00;61.74
7754;BME280;3921;42.266;23.122;2023-02-21T01:47:18;96041.22;;;4.39;60.82
7754;BME280;3921;42.266;23.122;2023-02-21T01:50:13;96122.38;;;4.95;60.90
7754;BME280;3921;42.266;23.122;2023-02-21T01:53:12;96145.66;;;5.29;60.95
7754;BME280;3921;42.266;23.122;2023-02-21T01:55:58;96012.00;;;4.30;61.02
7754;BME280;3921;42.266;23.122;2023-02-21T01:58:47;96024.00;;;4.46;61.04
7754;BME280;3921;42.266;23.122;2023-02-21T02:01:45;96052.06;;;4.72;60.36
7754;BME280;3921;42.266;23.122;2023-02-21T02:04:31;96018.28;;;4.49;60.98
7754;BME280;3921;42.266;23.122;2023-02-21T02:07:16;95949.91;;;4.03;60.11
7754;BME280;3921;42.266;23.122;2023-02-21T02:10:08;95999.88;;;4.42;59.40
7754;BME280;3921;42.266;23.122;2023-02-21T02:16:03;95935.88;;;4.05;59.69
7754;BME280;3921;42.266;23.122;2023-02-21T02:18:47;96132.81;;;5.14;59.34
7754;BME280;3921;42.266;23.122;2023-02-21T02:24:36;95971.25;;;4.26;59.31
7754;BME280;3921;42.266;23.122;2023-02-21T02:36:38;95999.72;;;4.06;60.21
7754;BME280;3921;42.266;23.122;2023-02-21T02:39:19;96015.56;;;4.10;60.03
7754;BME280;3921;42.266;23.122;2023-02-21T02:42:06;96150.66;;;4.67;60.91
7754;BME280;3921;42.266;23.122;2023-02-21T02:44:43;96009.69;;;3.78;60.83
7754;BME280;3921;42.266;23.122;2023-02-21T02:47:22;95914.25;;;3.14;61.11
7754;BME280;3921;42.266;23.122;2023-02-21T02:49:56;96011.81;;;3.65;61.04
7754;BME280;3921;42.266;23.122;2023-02-21T02:52:29;95849.28;;;2.70;60.71
7754;BME280;3921;42.266;23.122;2023-02-21T02:55:17;95994.44;;;3.65;61.25
7754;BME280;3921;42.266;23.122;2023-02-21T02:57:46;96129.75;;;4.31;61.57
7754;BME280;3921;42.266;23.122;2023-02-21T03:00:18;95988.88;;;3.45;61.63
7754;BME280;3921;42.266;23.122;2023-02-21T03:03:09;95729.97;;;1.80;62.14
7754;BME280;3921;42.266;23.122;2023-02-21T03:05:59;95832.53;;;2.36;61.93
7754;BME280;3921;42.266;23.122;2023-02-21T03:08:43;95810.44;;;2.44;61.69
7754;BME280;3921;42.266;23.122;2023-02-21T03:11:15;95584.06;;;1.08;61.65
7754;BME280;3921;42.266;23.122;2023-02-21T03:13:53;95997.50;;;3.57;61.71
7754;BME280;3921;42.266;23.122;2023-02-21T03:16:30;96018.66;;;3.72;61.79
7754;BME280;3921;42.266;23.122;2023-02-21T03:19:09;95848.63;;;2.49;62.50
7754;BME280;3921;42.266;23.122;2023-02-21T03:21:42;96134.91;;;4.37;62.58
7754;BME280;3921;42.266;23.122;2023-02-21T03:24:16;95967.44;;;3.49;61.99
7754;BME280;3921;42.266;23.122;2023-02-21T03:26:50;95969.75;;;3.43;62.01
7754;BME280;3921;42.266;23.122;2023-02-21T03:29:19;96001.44;;;3.79;61.70
7754;BME280;3921;42.266;23.122;2023-02-21T03:31:54;95929.09;;;3.39;62.08
7754;BME280;3921;42.266;23.122;2023-02-21T03:34:26;96082.13;;;4.18;62.15
7754;BME280;3921;42.266;23.122;2023-02-21T03:36:59;95972.72;;;3.60;62.28
7754;BME280;3921;42.266;23.122;2023-02-21T03:39:34;96031.00;;;3.98;61.59
7754;BME280;3921;42.266;23.122;2023-02-21T03:42:07;96024.91;;;3.88;61.34
7754;BME280;3921;42.266;23.122;2023-02-21T03:44:37;96027.25;;;3.55;61.76
7754;BME280;3921;42.266;23.122;2023-02-21T03:47:14;96005.63;;;3.51;61.54
7754;BME280;3921;42.266;23.122;2023-02-21T03:49:43;96099.66;;;3.94;61.66
7754;BME280;3921;42.266;23.122;2023-02-21T03:52:14;96010.81;;;3.59;60.85
7754;BME280;3921;42.266;23.122;2023-02-21T03:54:55;96115.66;;;4.03;60.92
7754;BME280;3921;42.266;23.122;2023-02-21T03:57:27;96040.78;;;3.36;61.48
7754;BME280;3921;42.266;23.122;2023-02-21T04:00:00;96142.72;;;3.93;62.98
7754;BME280;3921;42.266;23.122;2023-02-21T04:02:37;96028.56;;;3.15;62.93
7754;BME280;3921;42.266;23.122;2023-02-21T04:05:12;96003.81;;;3.18;63.10
7754;BME280;3921;42.266;23.122;2023-02-21T04:10:22;96032.97;;;3.26;63.79
7754;BME280;3921;42.266;23.122;2023-02-21T04:12:52;96052.88;;;3.53;63.19
7754;BME280;3921;42.266;23.122;2023-02-21T04:15:19;95711.50;;;1.45;63.25
7754;BME280;3921;42.266;23.122;2023-02-21T04:17:46;95926.97;;;2.96;62.83
7754;BME280;3921;42.266;23.122;2023-02-21T04:20:13;96011.88;;;3.38;63.01
7754;BME280;3921;42.266;23.122;2023-02-21T04:22:42;96132.00;;;4.23;62.25
7754;BME280;3921;42.266;23.122;2023-02-21T04:25:17;95810.41;;;2.17;62.57
7754;BME280;3921;42.266;23.122;2023-02-21T04:27:52;96011.59;;;3.29;62.28
7754;BME280;3921;42.266;23.122;2023-02-21T04:30:21;96031.97;;;3.46;62.81
7754;BME280;3921;42.266;23.122;2023-02-21T04:32:58;95905.00;;;2.54;62.94
7754;BME280;3921;42.266;23.122;2023-02-21T04:35:25;95895.56;;;2.43;63.10
7754;BME280;3921;42.266;23.122;2023-02-21T04:37:57;95749.28;;;1.65;62.76
7754;BME280;3921;42.266;23.122;2023-02-21T04:40:27;95848.69;;;2.25;63.42
7754;BME280;3921;42.266;23.122;2023-02-21T04:43:01;95979.53;;;2.83;63.44
7754;BME280;3921;42.266;23.122;2023-02-21T04:45:28;95992.69;;;3.07;63.54
7754;BME280;3921;42.266;23.122;2023-02-21T04:47:57;95990.53;;;2.91;63.18
7754;BME280;3921;42.266;23.122;2023-02-21T04:50:28;96000.28;;;3.12;62.11
7754;BME280;3921;42.266;23.122;2023-02-21T04:53:04;96047.19;;;3.30;61.85
7754;BME280;3921;42.266;23.122;2023-02-21T04:55:44;96020.63;;;3.27;61.72
7754;BME280;3921;42.266;23.122;2023-02-21T04:58:18;96015.72;;;3.29;61.90
7754;BME280;3921;42.266;23.122;2023-02-21T05:00:48;96078.84;;;3.62;62.00
7754;BME280;3921;42.266;23.122;2023-02-21T05:06:48;95557.19;;;0.18;62.76
7754;BME280;3921;42.266;23.122;2023-02-21T05:10:20;96126.75;;;3.85;63.09
7754;BME280;3921;42.266;23.122;2023-02-21T05:12:47;95953.53;;;2.72;61.84
7754;BME280;3921;42.266;23.122;2023-02-21T05:15:16;95742.28;;;1.53;62.15
7754;BME280;3921;42.266;23.122;2023-02-21T05:17:44;95435.50;;;-0.24;62.00
7754;BME280;3921;42.266;23.122;2023-02-21T05:20:12;95973.63;;;3.06;61.95
7754;BME280;3921;42.266;23.122;2023-02-21T05:22:39;95622.25;;;0.91;62.00
7754;BME280;3921;42.266;23.122;2023-02-21T05:25:13;95894.78;;;2.45;62.18
7754;BME280;3921;42.266;23.122;2023-02-21T05:27:41;95864.66;;;2.33;62.64
7754;BME280;3921;42.266;23.122;2023-02-21T05:30:11;95968.25;;;2.92;63.13
7754;BME280;3921;42.266;23.122;2023-02-21T05:32:40;95999.00;;;2.98;63.44
7754;BME280;3921;42.266;23.122;2023-02-21T05:35:08;95981.41;;;2.90;64.32
7754;BME280;3921;42.266;23.122;2023-02-21T05:37:36;95995.41;;;2.88;64.51
7754;BME280;3921;42.266;23.122;2023-02-21T05:40:04;96120.28;;;3.63;63.96
7754;BME280;3921;42.266;23.122;2023-02-21T05:42:31;96043.34;;;3.12;64.01
7754;BME280;3921;42.266;23.122;2023-02-21T05:44:58;96006.31;;;2.93;64.21
7754;BME280;3921;42.266;23.122;2023-02-21T05:47:26;95630.72;;;0.48;63.34
7754;BME280;3921;42.266;23.122;2023-02-21T05:49:55;95953.34;;;2.65;63.86
7754;BME280;3921;42.266;23.122;2023-02-21T05:52:28;96075.59;;;3.38;64.66
7754;BME280;3921;42.266;23.122;2023-02-21T05:54:55;95916.84;;;2.36;63.55
7754;BME280;3921;42.266;23.122;2023-02-21T05:57:22;95931.25;;;2.48;62.92
7754;BME280;3921;42.266;23.122;2023-02-21T05:59:50;96021.97;;;3.17;61.42
7754;BME280;3921;42.266;23.122;2023-02-21T06:02:17;95641.75;;;0.82;61.98
7754;BME280;3921;42.266;23.122;2023-02-21T06:04:44;96109.00;;;3.47;61.59
7754;BME280;3921;42.266;23.122;2023-02-21T06:07:12;96034.66;;;3.00;62.27
7754;BME280;3921;42.266;23.122;2023-02-21T06:09:39;96014.34;;;2.86;62.51
7754;BME280;3921;42.266;23.122;2023-02-21T06:12:06;95953.38;;;2.42;61.91
7754;BME280;3921;42.266;23.122;2023-02-21T06:14:33;96068.84;;;3.08;61.86
7754;BME280;3921;42.266;23.122;2023-02-21T06:17:00;96032.19;;;3.00;61.61
7754;BME280;3921;42.266;23.122;2023-02-21T06:19:28;96029.13;;;3.08;61.62
7754;BME280;3921;42.266;23.122;2023-02-21T06:21:55;96140.72;;;3.82;61.48
7754;BME280;3921;42.266;23.122;2023-02-21T06:24:23;95867.03;;;2.04;61.46
7754;BME280;3921;42.266;23.122;2023-02-21T06:26:50;95948.47;;;2.43;62.19
7754;BME280;3921;42.266;23.122;2023-02-21T06:29:18;96094.22;;;3.25;62.74
7754;BME280;3921;42.266;23.122;2023-02-21T06:31:47;95890.53;;;1.90;63.43
7754;BME280;3921;42.266;23.122;2023-02-21T06:34:15;96084.50;;;3.31;62.23
7754;BME280;3921;42.266;23.122;2023-02-21T06:36:42;96062.44;;;3.15;62.43
7754;BME280;3921;42.266;23.122;2023-02-21T06:39:13;96094.81;;;3.43;62.82
7754;BME280;3921;42.266;23.122;2023-02-21T06:41:43;95793.00;;;1.39;62.89
7754;BME280;3921;42.266;23.122;2023-02-21T06:44:11;95601.06;;;0.48;61.92
7754;BME280;3921;42.266;23.122;2023-02-21T06:46:39;95827.75;;;1.90;62.88
7754;BME280;3921;42.266;23.122;2023-02-21T06:49:06;96023.47;;;3.12;62.71
7754;BME280;3921;42.266;23.122;2023-02-21T06:51:34;96062.56;;;3.18;62.39
7754;BME280;3921;42.266;23.122;2023-02-21T06:54:01;95935.16;;;2.66;62.67
7754;BME280;3921;42.266;23.122;2023-02-21T06:56:28;95813.38;;;2.06;61.94
7754;BME280;3921;42.266;23.122;2023-02-21T06:58:57;96040.06;;;3.40;62.29
7754;BME280;3921;42.266;23.122;2023-02-21T07:01:26;95641.06;;;0.86;62.77
7754;BME280;3921;42.266;23.122;2023-02-21T07:03:54;95838.31;;;2.11;62.67
7754;BME280;3921;42.266;23.122;2023-02-21T07:06:21;95988.72;;;3.12;63.08
7754;BME280;3921;42.266;23.122;2023-02-21T07:08:49;96024.47;;;3.44;62.89
7754;BME280;3921;42.266;23.122;2023-02-21T07:11:17;95956.28;;;3.08;62.78
7754;BME280;3921;42.266;23.122;2023-02-21T07:13:46;96061.63;;;3.68;63.02
7754;BME280;3921;42.266;23.122;2023-02-21T07:16:17;95936.34;;;3.05;63.23
7754;BME280;3921;42.266;23.122;2023-02-21T07:18:45;95705.50;;;1.64;63.70
7754;BME280;3921;42.266;23.122;2023-02-21T07:21:13;95986.13;;;3.36;63.82
7754;BME280;3921;42.266;23.122;2023-02-21T07:23:42;95784.16;;;2.23;64.53
7754;BME280;3921;42.266;23.122;2023-02-21T07:26:09;95575.25;;;0.91;64.53
7754;BME280;3921;42.266;23.122;2023-02-21T07:28:37;95899.59;;;2.93;64.67
7754;BME280;3921;42.266;23.122;2023-02-21T07:31:04;95715.09;;;1.80;64.97
7754;BME280;3921;42.266;23.122;2023-02-21T07:33:33;95904.50;;;2.91;65.59
7754;BME280;3921;42.266;23.122;2023-02-21T07:36:00;96015.06;;;3.91;65.50
7754;BME280;3921;42.266;23.122;2023-02-21T07:38:29;96187.81;;;4.60;66.15
7754;BME280;3921;42.266;23.122;2023-02-21T07:40:57;95580.09;;;1.13;65.66
7754;BME280;3921;42.266;23.122;2023-02-21T07:43:25;95738.13;;;2.30;65.97
7754;BME280;3921;42.266;23.122;2023-02-21T07:45:52;95583.91;;;1.29;65.69
7754;BME280;3921;42.266;23.122;2023-02-21T07:48:21;95790.06;;;2.82;65.82
7754;BME280;3921;42.266;23.122;2023-02-21T07:50:54;95759.22;;;2.74;65.40
7754;BME280;3921;42.266;23.122;2023-02-21T07:53:22;95506.13;;;1.21;65.46
7754;BME280;3921;42.266;23.122;2023-02-21T07:55:49;95760.38;;;2.85;65.97
7754;BME280;3921;42.266;23.122;2023-02-21T07:58:22;95774.47;;;2.86;66.33
7754;BME280;3921;42.266;23.122;2023-02-21T08:03:51;95610.59;;;2.22;65.56
7754;BME280;3921;42.266;23.122;2023-02-21T08:12:09;95705.56;;;3.08;65.86
7754;BME280;3921;42.266;23.122;2023-02-21T08:14:51;95591.03;;;2.62;65.78
7754;BME280;3921;42.266;23.122;2023-02-21T08:17:29;96034.53;;;5.37;65.44
7754;BME280;3921;42.266;23.122;2023-02-21T08:19:58;95786.69;;;4.07;64.77
7754;BME280;3921;42.266;23.122;2023-02-21T08:22:25;95763.88;;;3.88;64.88
7754;BME280;3921;42.266;23.122;2023-02-21T08:24:54;96089.25;;;6.03;64.79
7754;BME280;3921;42.266;23.122;2023-02-21T08:27:21;95891.72;;;5.00;64.89
7754;BME280;3921;42.266;23.122;2023-02-21T08:29:49;96025.47;;;5.78;64.48
7754;BME280;3921;42.266;23.122;2023-02-21T08:32:16;95685.84;;;3.80;64.30
7754;BME280;3921;42.266;23.122;2023-02-21T08:34:44;95903.72;;;5.17;64.15
7754;BME280;3921;42.266;23.122;2023-02-21T08:37:12;96099.81;;;6.32;64.15
7754;BME280;3921;42.266;23.122;2023-02-21T08:39:43;95807.47;;;4.81;63.79
7754;BME280;3921;42.266;23.122;2023-02-21T08:42:12;95540.47;;;3.25;63.56
7754;BME280;3921;42.266;23.122;2023-02-21T08:44:42;95855.91;;;5.35;63.31
7754;BME280;3921;42.266;23.122;2023-02-21T08:47:09;95552.00;;;3.61;63.13
7754;BME280;3921;42.266;23.122;2023-02-21T08:49:37;95758.84;;;4.97;63.60
7754;BME280;3921;42.266;23.122;2023-02-21T08:52:06;95762.50;;;5.14;63.30
7754;BME280;3921;42.266;23.122;2023-02-21T08:54:33;95524.69;;;3.61;62.97
7754;BME280;3921;42.266;23.122;2023-02-21T08:57:01;95540.19;;;3.90;62.99
7754;BME280;3921;42.266;23.122;2023-02-21T08:59:30;95725.94;;;5.12;62.11
7754;BME280;3921;42.266;23.122;2023-02-21T09:01:58;95592.69;;;4.43;62.17
7754;BME280;3921;42.266;23.122;2023-02-21T09:04:30;95692.75;;;5.14;62.07
7754;BME280;3921;42.266;23.122;2023-02-21T09:07:00;95733.25;;;5.49;61.28
7754;BME280;3921;42.266;23.122;2023-02-21T09:09:27;95587.22;;;4.61;60.96
7754;BME280;3921;42.266;23.122;2023-02-21T09:11:55;95543.78;;;4.46;60.33
7754;BME280;3921;42.266;23.122;2023-02-21T09:14:22;95914.25;;;6.82;60.54
7754;BME280;3921;42.266;23.122;2023-02-21T09:16:50;95563.59;;;4.86;60.37
7754;BME280;3921;42.266;23.122;2023-02-21T09:19:17;95739.69;;;5.86;60.19
7754;BME280;3921;42.266;23.122;2023-02-21T09:21:46;95828.31;;;6.66;60.35
7754;BME280;3921;42.266;23.122;2023-02-21T09:24:19;95725.22;;;6.16;60.04
7754;BME280;3921;42.266;23.122;2023-02-21T09:26:50;95666.47;;;5.81;59.59
7754;BME280;3921;42.266;23.122;2023-02-21T09:29:19;95674.78;;;5.80;59.39
7754;BME280;3921;42.266;23.122;2023-02-21T09:31:47;95882.47;;;7.29;59.42
7754;BME280;3921;42.266;23.122;2023-02-21T09:34:16;95980.00;;;7.94;59.86
7754;BME280;3921;42.266;23.122;2023-02-21T09:36:43;95441.41;;;4.72;59.18
7754;BME280;3921;42.266;23.122;2023-02-21T09:39:12;95485.75;;;4.97;59.12
7754;BME280;3921;42.266;23.122;2023-02-21T09:41:40;95469.13;;;4.93;59.30
7754;BME280;3921;42.266;23.122;2023-02-21T09:44:12;95474.41;;;5.15;59.22
7754;BME280;3921;42.266;23.122;2023-02-21T09:46:43;95962.81;;;8.23;59.66
7754;BME280;3921;42.266;23.122;2023-02-21T09:49:14;95971.22;;;8.30;58.94
7754;BME280;3921;42.266;23.122;2023-02-21T09:51:45;95662.25;;;6.33;58.50
7754;BME280;3921;42.266;23.122;2023-02-21T09:54:18;95475.53;;;5.35;58.33
7754;BME280;3921;42.266;23.122;2023-02-21T09:56:49;95462.19;;;5.31;58.32
7754;BME280;3921;42.266;23.122;2023-02-21T09:59:17;95365.47;;;5.00;58.26
7754;BME280;3921;42.266;23.122;2023-02-21T10:02:02;95402.41;;;5.30;58.18
7754;BME280;3921;42.266;23.122;2023-02-21T10:04:43;95527.38;;;6.23;57.40
7754;BME280;3921;42.266;23.122;2023-02-21T10:07:35;95439.53;;;5.78;57.49
7754;BME280;3921;42.266;23.122;2023-02-21T10:10:10;95618.00;;;6.90;57.15
7754;BME280;3921;42.266;23.122;2023-02-21T10:12:45;95463.03;;;5.93;56.79
7754;BME280;3921;42.266;23.122;2023-02-21T10:15:26;95378.91;;;5.82;56.86
7754;BME280;3921;42.266;23.122;2023-02-21T10:18:01;95693.09;;;7.93;55.52
7754;BME280;3921;42.266;23.122;2023-02-21T10:20:34;95570.91;;;7.33;55.04
7754;BME280;3921;42.266;23.122;2023-02-21T10:23:13;95663.13;;;8.04;54.79
7754;BME280;3921;42.266;23.122;2023-02-21T10:25:41;95872.81;;;9.68;54.51
7754;BME280;3921;42.266;23.122;2023-02-21T10:28:16;95586.47;;;8.15;54.65
7754;BME280;3921;42.266;23.122;2023-02-21T10:30:44;95296.50;;;6.68;53.21
7754;BME280;3921;42.266;23.122;2023-02-21T10:33:12;95720.56;;;9.46;52.58
7754;BME280;3921;42.266;23.122;2023-02-21T10:35:40;95392.81;;;7.78;53.40
7754;BME280;3921;42.266;23.122;2023-02-21T10:38:10;95601.88;;;9.38;52.43
7754;BME280;3921;42.266;23.122;2023-02-21T10:40:41;95447.28;;;8.86;52.80
7754;BME280;3921;42.266;23.122;2023-02-21T10:43:12;95519.13;;;9.47;50.97
7754;BME280;3921;42.266;23.122;2023-02-21T10:45:46;95347.06;;;8.83;50.61
7754;BME280;3921;42.266;23.122;2023-02-21T10:48:19;95356.97;;;9.32;49.40
7754;BME280;3921;42.266;23.122;2023-02-21T10:50:50;95547.97;;;10.79;48.90
7754;BME280;3921;42.266;23.122;2023-02-21T10:53:25;95468.56;;;10.51;47.86
7754;BME280;3921;42.266;23.122;2023-02-21T10:56:07;95803.06;;;12.99;46.23
7754;BME280;3921;42.266;23.122;2023-02-21T10:58:35;95377.25;;;10.58;45.73
7754;BME280;3921;42.266;23.122;2023-02-21T11:01:11;95443.63;;;11.34;44.29
7754;BME280;3921;42.266;23.122;2023-02-21T11:03:43;95365.97;;;11.03;42.85
7754;BME280;3921;42.266;23.122;2023-02-21T11:06:21;95575.69;;;12.64;43.15
7754;BME280;3921;42.266;23.122;2023-02-21T11:08:51;95522.09;;;12.51;41.56
7754;BME280;3921;42.266;23.122;2023-02-21T11:11:31;95375.28;;;11.72;41.10
7754;BME280;3921;42.266;23.122;2023-02-21T11:14:22;95787.50;;;14.59;40.14
7754;BME280;3921;42.266;23.122;2023-02-21T11:17:10;95504.00;;;12.83;40.94
7754;BME280;3921;42.266;23.122;2023-02-21T11:19:57;95354.81;;;12.01;40.26
7754;BME280;3921;42.266;23.122;2023-02-21T11:22:35;95396.19;;;12.43;38.68
7754;BME280;3921;42.266;23.122;2023-02-21T11:25:07;95447.69;;;12.83;37.59
7754;BME280;3921;42.266;23.122;2023-02-21T11:27:43;95354.88;;;12.54;36.78
7754;BME280;3921;42.266;23.122;2023-02-21T11:30:14;95368.09;;;12.68;37.17
7754;BME280;3921;42.266;23.122;2023-02-21T11:32:47;95357.81;;;12.80;36.47
7754;BME280;3921;42.266;23.122;2023-02-21T11:35:25;95319.28;;;12.73;35.64
7754;BME280;3921;42.266;23.122;2023-02-21T11:37:55;95769.69;;;15.55;34.75
7754;BME280;3921;42.266;23.122;2023-02-21T11:40:46;95753.47;;;15.64;33.00
7754;BME280;3921;42.266;23.122;2023-02-21T11:43:55;95281.47;;;12.72;32.68
7754;BME280;3921;42.266;23.122;2023-02-21T11:46:45;95312.56;;;13.19;31.69
7754;BME280;3921;42.266;23.122;2023-02-21T11:49:43;95661.91;;;15.42;30.87
7754;BME280;3921;42.266;23.122;2023-02-21T11:52:45;95287.28;;;13.23;30.90
7754;BME280;3921;42.266;23.122;2023-02-21T11:55:43;95409.91;;;14.19;30.81
7754;BME280;3921;42.266;23.122;2023-02-21T12:01:46;95340.81;;;14.20;30.80
7754;BME280;3921;42.266;23.122;2023-02-21T12:04:37;95229.59;;;13.47;30.42
7754;BME280;3921;42.266;23.122;2023-02-21T12:07:47;95171.09;;;13.31;31.31
7754;BME280;3921;42.266;23.122;2023-02-21T12:14:36;95246.75;;;14.08;30.38
7754;BME280;3921;42.266;23.122;2023-02-21T12:17:17;95201.31;;;14.07;29.71
7754;BME280;3921;42.266;23.122;2023-02-21T12:20:02;95439.78;;;15.81;29.42
7754;BME280;3921;42.266;23.122;2023-02-21T12:22:44;95251.41;;;14.61;30.06
7754;BME280;3921;42.266;23.122;2023-02-21T12:25:25;95223.78;;;14.53;29.58
7754;BME280;3921;42.266;23.122;2023-02-21T12:34:00;95231.06;;;15.28;30.18
7754;BME280;3921;42.266;23.122;2023-02-21T12:36:40;95463.22;;;16.78;29.00
7754;BME280;3921;42.266;23.122;2023-02-21T12:39:22;95162.56;;;15.04;29.42
7754;BME280;3921;42.266;23.122;2023-02-21T12:53:10;95039.78;;;14.93;30.43
7754;BME280;3921;42.266;23.122;2023-02-21T12:55:41;95137.19;;;15.63;29.58
7754;BME280;3921;42.266;23.122;2023-02-21T12:58:17;95263.56;;;16.54;28.43
7754;BME280;3921;42.266;23.122;2023-02-21T13:00:50;95425.69;;;17.91;27.53
7754;BME280;3921;42.266;23.122;2023-02-21T13:03:32;95304.22;;;17.29;28.07
7754;BME280;3921;42.266;23.122;2023-02-21T13:06:05;95473.00;;;18.42;29.76
7754;BME280;3921;42.266;23.122;2023-02-21T13:08:45;95174.75;;;16.80;28.50
7754;BME280;3921;42.266;23.122;2023-02-21T13:11:20;95299.38;;;17.46;27.75
7754;BME280;3921;42.266;23.122;2023-02-21T13:13:48;95154.03;;;16.92;28.37
7754;BME280;3921;42.266;23.122;2023-02-21T13:16:16;95055.22;;;16.41;26.73
7754;BME280;3921;42.266;23.122;2023-02-21T13:18:47;95107.81;;;16.84;26.21
7754;BME280;3921;42.266;23.122;2023-02-21T13:21:27;95335.34;;;18.49;27.08
7754;BME280;3921;42.266;23.122;2023-02-21T13:24:01;95308.78;;;18.35;26.54
7754;BME280;3921;42.266;23.122;2023-02-21T13:26:43;95139.59;;;17.62;27.28
7754;BME280;3921;42.266;23.122;2023-02-21T13:29:17;95182.91;;;18.02;25.32
7754;BME280;3921;42.266;23.122;2023-02-21T13:31:46;95295.41;;;18.94;24.88
7754;BME280;3921;42.266;23.122;2023-02-21T13:34:18;95226.97;;;18.66;26.09
7754;BME280;3921;42.266;23.122;2023-02-21T13:36:49;95319.31;;;19.30;25.39
7754;BME280;3921;42.266;23.122;2023-02-21T13:39:20;95123.13;;;18.14;23.85
7754;BME280;3921;42.266;23.122;2023-02-21T13:42:04;95311.28;;;19.40;25.29
7754;BME280;3921;42.266;23.122;2023-02-21T13:44:42;95357.59;;;19.88;23.41
7754;BME280;3921;42.266;23.122;2023-02-21T13:47:13;95398.06;;;19.96;24.63
7754;BME280;3921;42.266;23.122;2023-02-21T13:49:46;95311.75;;;19.68;23.59
7754;BME280;3921;42.266;23.122;2023-02-21T13:55:29;95367.50;;;20.32;24.82
7754;BME280;3921;42.266;23.122;2023-02-21T13:58:41;95070.69;;;18.51;24.50
7754;BME280;3921;42.266;23.122;2023-02-21T14:01:37;95520.88;;;21.39;24.98
7754;BME280;3921;42.266;23.122;2023-02-21T14:10:44;95307.91;;;19.97;24.66
7754;BME280;3921;42.266;23.122;2023-02-21T14:13:26;95519.81;;;21.43;25.07
7754;BME280;3921;42.266;23.122;2023-02-21T14:15:58;95401.91;;;20.98;24.98
7754;BME280;3921;42.266;23.122;2023-02-21T14:21:54;95257.41;;;20.76;24.38
7754;BME280;3921;42.266;23.122;2023-02-21T14:24:27;95500.41;;;22.91;23.81
7754;BME280;3921;42.266;23.122;2023-02-21T14:30:31;95116.78;;;21.60;21.37
7754;BME280;3921;42.266;23.122;2023-02-21T14:33:13;95329.56;;;23.50;21.94
7754;BME280;3921;42.266;23.122;2023-02-21T14:35:50;95114.81;;;22.98;21.25
7754;BME280;3921;42.266;23.122;2023-02-21T14:38:23;95461.56;;;26.32;20.09
7754;BME280;3921;42.266;23.122;2023-02-21T14:41:03;95074.31;;;25.26;19.18
7754;BME280;3921;42.266;23.122;2023-02-21T14:43:52;95497.44;;;28.71;18.45
7754;BME280;3921;42.266;23.122;2023-02-21T14:46:56;95336.13;;;27.17;18.26
7754;BME280;3921;42.266;23.122;2023-02-21T14:50:00;95090.25;;;24.56;17.97
7754;BME280;3921;42.266;23.122;2023-02-21T14:53:34;95507.28;;;26.66;19.76
7754;BME280;3921;42.266;23.122;2023-02-21T14:59:57;95485.44;;;27.09;18.96
7754;BME280;3921;42.266;23.122;2023-02-21T15:09:26;95316.00;;;26.63;18.71
7754;BME280;3921;42.266;23.122;2023-02-21T15:12:26;95482.44;;;27.50;18.83
7754;BME280;3921;42.266;23.122;2023-02-21T15:26:32;95166.38;;;20.06;23.73
7754;BME280;3921;42.266;23.122;2023-02-21T15:29:24;95004.00;;;18.05;25.28
7754;BME280;3921;42.266;23.122;2023-02-21T15:34:52;95070.91;;;17.21;27.18
7754;BME280;3921;42.266;23.122;2023-02-21T15:37:22;95067.34;;;16.81;27.42
7754;BME280;3921;42.266;23.122;2023-02-21T15:39:52;95250.50;;;17.39;28.59
7754;BME280;3921;42.266;23.122;2023-02-21T15:42:23;95488.81;;;18.73;28.98
7754;BME280;3921;42.266;23.122;2023-02-21T15:44:55;95145.78;;;16.12;29.32